sensor_id;sensor_type;location;lat;lon;timestamp;temperature;humidity
9544;DHT22;30418;51.45933468;7.33152330;2022-11-20T00:01:37;4.90;55.50
9544;DHT22;30418;51.45933468;7.33152330;2022-11-20T00:04:06;4.90;55.60
9544;DHT22;30418;51.45933468;7.33152330;2022-11-20T00:06:36;4.90;55.60
9544;DHT22;30418;51.45933468;7.33152330;2022-11-20T00:09:05;4.90;55.60
9544;DHT22;30418;51.45933468;7.33152330;2022-11-20T00:11:35;4.90;55.60
9544;DHT22;30418;51.45933468;7.33152330;2022-11-20T00:14:03;4.90;55.60
9544;DHT22;30418;51.45933468;7.33152330;2022-11-20T00:16:33;4.90;55.70
9544;DHT22;30418;51.45933468;7.33152330;2022-11-20T00:19:01;4.90;56.40
9544;DHT22;30418;51.45933468;7.33152330;2022-11-20T00:21:30;4.90;55.80
9544;DHT22;30418;51.45933468;7.33152330;2022-11-20T00:23:59;4.90;55.90
9544;DHT22;30418;51.45933468;7.33152330;2022-11-20T00:26:28;5.00;56.00
9544;DHT22;30418;51.45933468;7.33152330;2022-11-20T00:29:00;4.90;56.00
9544;DHT22;30418;51.45933468;7.33152330;2022-11-20T00:31:29;4.90;56.00
9544;DHT22;30418;51.45933468;7.33152330;2022-11-20T00:34:00;5.00;56.10
9544;DHT22;30418;51.45933468;7.33152330;2022-11-20T00:36:31;5.00;56.10
9544;DHT22;30418;51.45933468;7.33152330;2022-11-20T00:39:00;5.00;56.10
9544;DHT22;30418;51.45933468;7.33152330;2022-11-20T00:41:29;5.00;56.10
9544;DHT22;30418;51.45933468;7.33152330;2022-11-20T00:43:59;5.00;56.10
9544;DHT22;30418;51.45933468;7.33152330;2022-11-20T00:46:28;5.00;56.10
9544;DHT22;30418;51.45933468;7.33152330;2022-11-20T00:48:57;5.10;56.20
9544;DHT22;30418;51.45933468;7.33152330;2022-11-20T00:51:27;5.10;56.20
9544;DHT22;30418;51.45933468;7.33152330;2022-11-20T00:53:57;5.10;56.30
9544;DHT22;30418;51.45933468;7.33152330;2022-11-20T00:56:27;5.10;56.30
9544;DHT22;30418;51.45933468;7.33152330;2022-11-20T00:58:58;5.10;56.30
9544;DHT22;30418;51.45933468;7.33152330;2022-11-20T01:01:30;5.10;56.40
9544;DHT22;30418;51.45933468;7.33152330;2022-11-20T01:03:59;5.10;56.40
9544;DHT22;30418;51.45933468;7.33152330;2022-11-20T01:06:30;5.10;56.40
9544;DHT22;30418;51.45933468;7.33152330;2022-11-20T01:09:01;5.10;56.50
9544;DHT22;30418;51.45933468;7.33152330;2022-11-20T01:11:33;5.10;56.60
9544;DHT22;30418;51.45933468;7.33152330;2022-11-20T01:14:06;5.20;56.60
9544;DHT22;30418;51.45933468;7.33152330;2022-11-20T01:16:38;5.20;56.70
9544;DHT22;30418;51.45933468;7.33152330;2022-11-20T01:19:10;5.20;56.70
9544;DHT22;30418;51.45933468;7.33152330;2022-11-20T01:21:45;5.20;56.70
9544;DHT22;30418;51.45933468;7.33152330;2022-11-20T01:24:17;5.10;56.70
9544;DHT22;30418;51.45933468;7.33152330;2022-11-20T01:26:48;5.20;56.80
9544;DHT22;30418;51.45933468;7.33152330;2022-11-20T01:29:20;5.20;56.90
9544;DHT22;30418;51.45933468;7.33152330;2022-11-20T01:31:50;5.20;56.90
9544;DHT22;30418;51.45933468;7.33152330;2022-11-20T01:34:21;5.20;56.90
9544;DHT22;30418;51.45933468;7.33152330;2022-11-20T01:36:50;5.30;57.00
9544;DHT22;30418;51.45933468;7.33152330;2022-11-20T01:39:21;5.30;57.00
9544;DHT22;30418;51.45933468;7.33152330;2022-11-20T01:41:51;5.30;57.10
9544;DHT22;30418;51.45933468;7.33152330;2022-11-20T01:44:52;5.30;57.00
9544;DHT22;30418;51.45933468;7.33152330;2022-11-20T01:47:30;5.30;57.10
9544;DHT22;30418;51.45933468;7.33152330;2022-11-20T01:50:05;5.30;57.10
9544;DHT22;30418;51.45933468;7.33152330;2022-11-20T01:52:38;5.30;57.10
9544;DHT22;30418;51.45933468;7.33152330;2022-11-20T01:55:11;5.30;57.10
9544;DHT22;30418;51.45933468;7.33152330;2022-11-20T01:57:44;5.30;57.10
9544;DHT22;30418;51.45933468;7.33152330;2022-11-20T02:00:17;5.30;57.10
9544;DHT22;30418;51.45933468;7.33152330;2022-11-20T02:02:50;5.30;57.10
9544;DHT22;30418;51.45933468;7.33152330;2022-11-20T02:05:26;5.40;57.20
9544;DHT22;30418;51.45933468;7.33152330;2022-11-20T02:07:58;5.30;57.10
9544;DHT22;30418;51.45933468;7.33152330;2022-11-20T02:10:28;5.30;57.20
9544;DHT22;30418;51.45933468;7.33152330;2022-11-20T02:12:58;5.40;57.30
9544;DHT22;30418;51.45933468;7.33152330;2022-11-20T02:15:47;5.30;57.30
9544;DHT22;30418;51.45933468;7.33152330;2022-11-20T02:18:18;5.30;57.30
9544;DHT22;30418;51.45933468;7.33152330;2022-11-20T02:20:49;5.40;57.50
9544;DHT22;30418;51.45933468;7.33152330;2022-11-20T02:23:26;5.40;57.50
9544;DHT22;30418;51.45933468;7.33152330;2022-11-20T02:26:02;5.40;57.60
9544;DHT22;30418;51.45933468;7.33152330;2022-11-20T02:28:32;5.40;57.60
9544;DHT22;30418;51.45933468;7.33152330;2022-11-20T02:31:01;5.40;57.60
9544;DHT22;30418;51.45933468;7.33152330;2022-11-20T02:33:29;5.40;57.60
9544;DHT22;30418;51.45933468;7.33152330;2022-11-20T02:35:58;5.40;57.60
9544;DHT22;30418;51.45933468;7.33152330;2022-11-20T02:38:26;5.40;57.60
9544;DHT22;30418;51.45933468;7.33152330;2022-11-20T02:40:55;5.40;57.60
9544;DHT22;30418;51.45933468;7.33152330;2022-11-20T02:43:25;5.40;57.60
9544;DHT22;30418;51.45933468;7.33152330;2022-11-20T02:45:53;5.40;57.70
9544;DHT22;30418;51.45933468;7.33152330;2022-11-20T02:48:22;5.50;57.80
9544;DHT22;30418;51.45933468;7.33152330;2022-11-20T02:50:51;5.50;57.80
9544;DHT22;30418;51.45933468;7.33152330;2022-11-20T02:53:19;5.50;57.80
9544;DHT22;30418;51.45933468;7.33152330;2022-11-20T02:55:48;5.50;57.90
9544;DHT22;30418;51.45933468;7.33152330;2022-11-20T02:58:16;5.50;57.90
9544;DHT22;30418;51.45933468;7.33152330;2022-11-20T03:00:46;5.50;57.90
9544;DHT22;30418;51.45933468;7.33152330;2022-11-20T03:03:15;5.50;57.90
9544;DHT22;30418;51.45933468;7.33152330;2022-11-20T03:05:43;5.50;57.90
9544;DHT22;30418;51.45933468;7.33152330;2022-11-20T03:08:12;5.60;58.00
9544;DHT22;30418;51.45933468;7.33152330;2022-11-20T03:10:40;5.50;58.00
9544;DHT22;30418;51.45933468;7.33152330;2022-11-20T03:13:09;5.60;58.10
9544;DHT22;30418;51.45933468;7.33152330;2022-11-20T03:15:37;5.60;58.00
9544;DHT22;30418;51.45933468;7.33152330;2022-11-20T03:18:07;5.60;58.00
9544;DHT22;30418;51.45933468;7.33152330;2022-11-20T03:20:36;5.60;58.00
9544;DHT22;30418;51.45933468;7.33152330;2022-11-20T03:23:04;5.60;58.10
9544;DHT22;30418;51.45933468;7.33152330;2022-11-20T03:25:32;5.50;58.10
9544;DHT22;30418;51.45933468;7.33152330;2022-11-20T03:28:01;5.60;58.20
9544;DHT22;30418;51.45933468;7.33152330;2022-11-20T03:30:30;5.60;58.20
9544;DHT22;30418;51.45933468;7.33152330;2022-11-20T03:32:58;5.60;58.90
9544;DHT22;30418;51.45933468;7.33152330;2022-11-20T03:35:28;5.60;58.20
9544;DHT22;30418;51.45933468;7.33152330;2022-11-20T03:37:57;5.50;58.20
9544;DHT22;30418;51.45933468;7.33152330;2022-11-20T03:40:26;5.50;58.20
9544;DHT22;30418;51.45933468;7.33152330;2022-11-20T03:42:54;5.50;58.20
9544;DHT22;30418;51.45933468;7.33152330;2022-11-20T03:45:23;5.50;58.20
9544;DHT22;30418;51.45933468;7.33152330;2022-11-20T03:47:52;5.50;58.90
9544;DHT22;30418;51.45933468;7.33152330;2022-11-20T03:50:20;5.50;58.40
9544;DHT22;30418;51.45933468;7.33152330;2022-11-20T03:52:51;5.50;58.50
9544;DHT22;30418;51.45933468;7.33152330;2022-11-20T03:55:19;5.50;58.60
9544;DHT22;30418;51.45933468;7.33152330;2022-11-20T03:57:48;5.50;58.60
9544;DHT22;30418;51.45933468;7.33152330;2022-11-20T04:00:16;5.60;58.70
9544;DHT22;30418;51.45933468;7.33152330;2022-11-20T04:02:45;5.60;58.80
9544;DHT22;30418;51.45933468;7.33152330;2022-11-20T04:05:14;5.60;58.80
9544;DHT22;30418;51.45933468;7.33152330;2022-11-20T04:07:42;5.60;58.90
9544;DHT22;30418;51.45933468;7.33152330;2022-11-20T04:10:13;5.60;58.90
9544;DHT22;30418;51.45933468;7.33152330;2022-11-20T04:12:41;5.60;58.90
9544;DHT22;30418;51.45933468;7.33152330;2022-11-20T04:15:10;5.60;58.90
9544;DHT22;30418;51.45933468;7.33152330;2022-11-20T04:17:38;5.60;58.90
9544;DHT22;30418;51.45933468;7.33152330;2022-11-20T04:20:07;5.70;59.00
9544;DHT22;30418;51.45933468;7.33152330;2022-11-20T04:22:36;5.60;58.90
9544;DHT22;30418;51.45933468;7.33152330;2022-11-20T04:25:06;5.70;59.00
9544;DHT22;30418;51.45933468;7.33152330;2022-11-20T04:27:36;5.70;59.00
9544;DHT22;30418;51.45933468;7.33152330;2022-11-20T04:30:05;5.70;59.00
9544;DHT22;30418;51.45933468;7.33152330;2022-11-20T04:32:34;5.70;59.00
9544;DHT22;30418;51.45933468;7.33152330;2022-11-20T04:35:03;5.70;59.00
9544;DHT22;30418;51.45933468;7.33152330;2022-11-20T04:37:32;5.70;59.00
9544;DHT22;30418;51.45933468;7.33152330;2022-11-20T04:40:01;5.80;59.10
9544;DHT22;30418;51.45933468;7.33152330;2022-11-20T04:42:29;5.80;59.10
9544;DHT22;30418;51.45933468;7.33152330;2022-11-20T04:44:59;5.80;59.10
9544;DHT22;30418;51.45933468;7.33152330;2022-11-20T04:47:27;5.80;59.10
9544;DHT22;30418;51.45933468;7.33152330;2022-11-20T04:49:58;5.80;59.10
9544;DHT22;30418;51.45933468;7.33152330;2022-11-20T04:52:27;5.80;59.10
9544;DHT22;30418;51.45933468;7.33152330;2022-11-20T04:54:55;5.80;59.10
9544;DHT22;30418;51.45933468;7.33152330;2022-11-20T04:57:24;5.80;59.10
9544;DHT22;30418;51.45933468;7.33152330;2022-11-20T04:59:52;5.80;59.10
9544;DHT22;30418;51.45933468;7.33152330;2022-11-20T05:02:23;5.80;59.10
9544;DHT22;30418;51.45933468;7.33152330;2022-11-20T05:04:51;5.80;59.10
9544;DHT22;30418;51.45933468;7.33152330;2022-11-20T05:07:20;5.90;59.10
9544;DHT22;30418;51.45933468;7.33152330;2022-11-20T05:09:49;5.80;59.10
9544;DHT22;30418;51.45933468;7.33152330;2022-11-20T05:12:17;5.90;59.20
9544;DHT22;30418;51.45933468;7.33152330;2022-11-20T05:14:45;5.80;59.10
9544;DHT22;30418;51.45933468;7.33152330;2022-11-20T05:17:14;5.90;59.80
9544;DHT22;30418;51.45933468;7.33152330;2022-11-20T05:19:44;5.90;59.10
9544;DHT22;30418;51.45933468;7.33152330;2022-11-20T05:22:18;5.90;59.20
9544;DHT22;30418;51.45933468;7.33152330;2022-11-20T05:24:47;5.80;59.10
9544;DHT22;30418;51.45933468;7.33152330;2022-11-20T05:27:15;5.80;59.10
9544;DHT22;30418;51.45933468;7.33152330;2022-11-20T05:29:44;5.90;59.10
9544;DHT22;30418;51.45933468;7.33152330;2022-11-20T05:32:12;5.80;59.10
9544;DHT22;30418;51.45933468;7.33152330;2022-11-20T05:34:41;5.90;59.20
9544;DHT22;30418;51.45933468;7.33152330;2022-11-20T05:37:12;5.90;59.20
9544;DHT22;30418;51.45933468;7.33152330;2022-11-20T05:39:41;5.90;59.30
9544;DHT22;30418;51.45933468;7.33152330;2022-11-20T05:42:09;5.90;59.30
9544;DHT22;30418;51.45933468;7.33152330;2022-11-20T05:44:55;5.90;59.40
9544;DHT22;30418;51.45933468;7.33152330;2022-11-20T05:47:24;5.90;59.40
9544;DHT22;30418;51.45933468;7.33152330;2022-11-20T05:49:52;5.90;59.40
9544;DHT22;30418;51.45933468;7.33152330;2022-11-20T05:52:22;5.90;59.50
9544;DHT22;30418;51.45933468;7.33152330;2022-11-20T05:54:51;5.90;59.50
9544;DHT22;30418;51.45933468;7.33152330;2022-11-20T05:57:19;5.90;59.50
9544;DHT22;30418;51.45933468;7.33152330;2022-11-20T05:59:48;5.90;59.50
9544;DHT22;30418;51.45933468;7.33152330;2022-11-20T06:02:16;5.90;59.40
9544;DHT22;30418;51.45933468;7.33152330;2022-11-20T06:04:44;5.90;59.50
9544;DHT22;30418;51.45933468;7.33152330;2022-11-20T06:07:13;5.90;59.40
9544;DHT22;30418;51.45933468;7.33152330;2022-11-20T06:09:43;5.90;59.50
9544;DHT22;30418;51.45933468;7.33152330;2022-11-20T06:12:11;5.90;59.50
9544;DHT22;30418;51.45933468;7.33152330;2022-11-20T06:14:40;5.90;59.50
9544;DHT22;30418;51.45933468;7.33152330;2022-11-20T06:17:08;5.90;59.40
9544;DHT22;30418;51.45933468;7.33152330;2022-11-20T06:19:37;5.90;59.40
9544;DHT22;30418;51.45933468;7.33152330;2022-11-20T06:22:05;5.90;59.50
9544;DHT22;30418;51.45933468;7.33152330;2022-11-20T06:24:33;5.90;59.40
9544;DHT22;30418;51.45933468;7.33152330;2022-11-20T06:27:03;5.90;59.50
9544;DHT22;30418;51.45933468;7.33152330;2022-11-20T06:29:32;5.90;59.50
9544;DHT22;30418;51.45933468;7.33152330;2022-11-20T06:32:00;5.80;59.40
9544;DHT22;30418;51.45933468;7.33152330;2022-11-20T06:34:29;5.80;59.50
9544;DHT22;30418;51.45933468;7.33152330;2022-11-20T06:36:57;5.80;59.50
9544;DHT22;30418;51.45933468;7.33152330;2022-11-20T06:39:25;5.80;59.50
9544;DHT22;30418;51.45933468;7.33152330;2022-11-20T06:41:54;5.80;59.50
9544;DHT22;30418;51.45933468;7.33152330;2022-11-20T06:44:26;5.80;59.50
9544;DHT22;30418;51.45933468;7.33152330;2022-11-20T06:46:55;5.80;59.50
9544;DHT22;30418;51.45933468;7.33152330;2022-11-20T06:49:23;5.80;59.50
9544;DHT22;30418;51.45933468;7.33152330;2022-11-20T06:51:52;5.80;59.50
9544;DHT22;30418;51.45933468;7.33152330;2022-11-20T06:54:20;5.80;59.50
9544;DHT22;30418;51.45933468;7.33152330;2022-11-20T06:56:49;5.80;59.50
9544;DHT22;30418;51.45933468;7.33152330;2022-11-20T06:59:17;5.80;59.50
9544;DHT22;30418;51.45933468;7.33152330;2022-11-20T07:01:48;5.80;59.40
9544;DHT22;30418;51.45933468;7.33152330;2022-11-20T07:04:16;5.70;59.30
9544;DHT22;30418;51.45933468;7.33152330;2022-11-20T07:06:45;5.70;59.40
9544;DHT22;30418;51.45933468;7.33152330;2022-11-20T07:09:13;5.70;59.40
9544;DHT22;30418;51.45933468;7.33152330;2022-11-20T07:11:43;5.70;59.40
9544;DHT22;30418;51.45933468;7.33152330;2022-11-20T07:14:11;5.70;59.40
9544;DHT22;30418;51.45933468;7.33152330;2022-11-20T07:16:40;5.70;59.40
9544;DHT22;30418;51.45933468;7.33152330;2022-11-20T07:19:10;5.70;59.50
9544;DHT22;30418;51.45933468;7.33152330;2022-11-20T07:21:38;5.70;59.50
9544;DHT22;30418;51.45933468;7.33152330;2022-11-20T07:24:07;5.70;59.50
9544;DHT22;30418;51.45933468;7.33152330;2022-11-20T07:26:35;5.60;59.40
9544;DHT22;30418;51.45933468;7.33152330;2022-11-20T07:29:04;5.60;59.50
9544;DHT22;30418;51.45933468;7.33152330;2022-11-20T07:31:32;5.60;59.40
9544;DHT22;30418;51.45933468;7.33152330;2022-11-20T07:34:01;5.60;59.50
9544;DHT22;30418;51.45933468;7.33152330;2022-11-20T07:36:31;5.60;59.50
9544;DHT22;30418;51.45933468;7.33152330;2022-11-20T07:38:59;5.60;59.50
9544;DHT22;30418;51.45933468;7.33152330;2022-11-20T07:41:28;5.60;59.50
9544;DHT22;30418;51.45933468;7.33152330;2022-11-20T07:43:56;5.50;59.40
9544;DHT22;30418;51.45933468;7.33152330;2022-11-20T07:46:25;5.60;59.50
9544;DHT22;30418;51.45933468;7.33152330;2022-11-20T07:48:53;5.60;59.50
9544;DHT22;30418;51.45933468;7.33152330;2022-11-20T07:51:22;5.60;59.50
9544;DHT22;30418;51.45933468;7.33152330;2022-11-20T07:53:53;5.60;59.50
9544;DHT22;30418;51.45933468;7.33152330;2022-11-20T07:56:21;5.60;59.50
9544;DHT22;30418;51.45933468;7.33152330;2022-11-20T07:58:50;5.60;59.50
9544;DHT22;30418;51.45933468;7.33152330;2022-11-20T08:01:18;5.60;59.50
9544;DHT22;30418;51.45933468;7.33152330;2022-11-20T08:03:47;5.60;59.50
9544;DHT22;30418;51.45933468;7.33152330;2022-11-20T08:06:15;5.60;60.20
9544;DHT22;30418;51.45933468;7.33152330;2022-11-20T08:08:45;5.60;59.50
9544;DHT22;30418;51.45933468;7.33152330;2022-11-20T08:11:15;5.60;59.50
9544;DHT22;30418;51.45933468;7.33152330;2022-11-20T08:14:01;5.60;59.60
9544;DHT22;30418;51.45933468;7.33152330;2022-11-20T08:16:43;5.60;59.60
9544;DHT22;30418;51.45933468;7.33152330;2022-11-20T08:19:14;5.60;59.70
9544;DHT22;30418;51.45933468;7.33152330;2022-11-20T08:21:43;5.60;59.70
9544;DHT22;30418;51.45933468;7.33152330;2022-11-20T08:24:12;5.60;59.70
9544;DHT22;30418;51.45933468;7.33152330;2022-11-20T08:26:42;5.60;59.70
9544;DHT22;30418;51.45933468;7.33152330;2022-11-20T08:29:11;5.60;59.70
9544;DHT22;30418;51.45933468;7.33152330;2022-11-20T08:31:39;5.60;59.70
9544;DHT22;30418;51.45933468;7.33152330;2022-11-20T08:34:08;5.60;59.70
9544;DHT22;30418;51.45933468;7.33152330;2022-11-20T08:36:42;5.60;59.80
9544;DHT22;30418;51.45933468;7.33152330;2022-11-20T08:39:11;5.60;59.80
9544;DHT22;30418;51.45933468;7.33152330;2022-11-20T08:41:41;5.70;59.90
9544;DHT22;30418;51.45933468;7.33152330;2022-11-20T08:44:10;5.60;59.90
9544;DHT22;30418;51.45933468;7.33152330;2022-11-20T08:46:40;5.60;59.80
9544;DHT22;30418;51.45933468;7.33152330;2022-11-20T08:49:11;5.70;59.90
9544;DHT22;30418;51.45933468;7.33152330;2022-11-20T08:51:41;5.70;59.90
9544;DHT22;30418;51.45933468;7.33152330;2022-11-20T08:54:10;5.70;59.90
9544;DHT22;30418;51.45933468;7.33152330;2022-11-20T08:56:42;5.70;59.90
9544;DHT22;30418;51.45933468;7.33152330;2022-11-20T08:59:10;5.70;59.90
9544;DHT22;30418;51.45933468;7.33152330;2022-11-20T09:01:58;5.70;59.90
9544;DHT22;30418;51.45933468;7.33152330;2022-11-20T09:04:27;5.80;59.90
9544;DHT22;30418;51.45933468;7.33152330;2022-11-20T09:06:56;5.80;60.70
9544;DHT22;30418;51.45933468;7.33152330;2022-11-20T09:09:24;5.80;60.00
9544;DHT22;30418;51.45933468;7.33152330;2022-11-20T09:11:54;5.80;59.90
9544;DHT22;30418;51.45933468;7.33152330;2022-11-20T09:14:23;5.80;60.00
9544;DHT22;30418;51.45933468;7.33152330;2022-11-20T09:16:56;5.80;59.90
9544;DHT22;30418;51.45933468;7.33152330;2022-11-20T09:19:24;5.80;60.00
9544;DHT22;30418;51.45933468;7.33152330;2022-11-20T09:22:13;5.80;59.90
9544;DHT22;30418;51.45933468;7.33152330;2022-11-20T09:24:41;5.90;60.00
9544;DHT22;30418;51.45933468;7.33152330;2022-11-20T09:27:11;5.90;60.00
9544;DHT22;30418;51.45933468;7.33152330;2022-11-20T09:29:40;5.90;59.90
9544;DHT22;30418;51.45933468;7.33152330;2022-11-20T09:32:08;5.90;59.90
9544;DHT22;30418;51.45933468;7.33152330;2022-11-20T09:34:37;5.90;59.80
9544;DHT22;30418;51.45933468;7.33152330;2022-11-20T09:37:05;6.00;59.80
9544;DHT22;30418;51.45933468;7.33152330;2022-11-20T09:39:33;6.00;59.80
9544;DHT22;30418;51.45933468;7.33152330;2022-11-20T09:42:27;6.00;59.80
9544;DHT22;30418;51.45933468;7.33152330;2022-11-20T09:45:09;6.00;59.80
9544;DHT22;30418;51.45933468;7.33152330;2022-11-20T09:47:53;6.00;59.80
9544;DHT22;30418;51.45933468;7.33152330;2022-11-20T09:50:32;6.00;59.60
9544;DHT22;30418;51.45933468;7.33152330;2022-11-20T09:53:15;6.10;59.60
9544;DHT22;30418;51.45933468;7.33152330;2022-11-20T09:55:48;6.10;59.60
9544;DHT22;30418;51.45933468;7.33152330;2022-11-20T09:58:26;6.10;59.60
9544;DHT22;30418;51.45933468;7.33152330;2022-11-20T10:01:06;6.10;59.70
9544;DHT22;30418;51.45933468;7.33152330;2022-11-20T10:03:46;6.20;59.80
9544;DHT22;30418;51.45933468;7.33152330;2022-11-20T10:06:24;6.20;59.80
9544;DHT22;30418;51.45933468;7.33152330;2022-11-20T10:09:04;6.20;59.90
9544;DHT22;30418;51.45933468;7.33152330;2022-11-20T10:11:46;6.30;60.00
9544;DHT22;30418;51.45933468;7.33152330;2022-11-20T10:14:26;6.30;59.90
9544;DHT22;30418;51.45933468;7.33152330;2022-11-20T10:17:03;6.30;59.80
9544;DHT22;30418;51.45933468;7.33152330;2022-11-20T10:19:58;6.40;60.00
9544;DHT22;30418;51.45933468;7.33152330;2022-11-20T10:22:42;6.40;60.00
9544;DHT22;30418;51.45933468;7.33152330;2022-11-20T10:25:21;6.50;60.00
9544;DHT22;30418;51.45933468;7.33152330;2022-11-20T10:28:20;6.50;59.90
9544;DHT22;30418;51.45933468;7.33152330;2022-11-20T10:31:00;6.50;59.70
9544;DHT22;30418;51.45933468;7.33152330;2022-11-20T10:33:34;6.50;59.60
9544;DHT22;30418;51.45933468;7.33152330;2022-11-20T10:36:27;6.50;59.70
9544;DHT22;30418;51.45933468;7.33152330;2022-11-20T10:39:00;6.60;59.90
9544;DHT22;30418;51.45933468;7.33152330;2022-11-20T10:41:37;6.60;60.00
9544;DHT22;30418;51.45933468;7.33152330;2022-11-20T10:44:13;6.60;60.00
9544;DHT22;30418;51.45933468;7.33152330;2022-11-20T10:47:05;6.60;60.00
9544;DHT22;30418;51.45933468;7.33152330;2022-11-20T10:49:41;6.70;60.10
9544;DHT22;30418;51.45933468;7.33152330;2022-11-20T10:52:15;6.70;60.00
9544;DHT22;30418;51.45933468;7.33152330;2022-11-20T10:54:56;6.70;59.80
9544;DHT22;30418;51.45933468;7.33152330;2022-11-20T10:57:41;6.70;59.80
9544;DHT22;30418;51.45933468;7.33152330;2022-11-20T11:00:18;6.80;59.80
9544;DHT22;30418;51.45933468;7.33152330;2022-11-20T11:02:50;6.80;59.80
9544;DHT22;30418;51.45933468;7.33152330;2022-11-20T11:05:32;6.80;59.90
9544;DHT22;30418;51.45933468;7.33152330;2022-11-20T11:08:07;6.80;59.80
9544;DHT22;30418;51.45933468;7.33152330;2022-11-20T11:10:43;6.80;59.80
9544;DHT22;30418;51.45933468;7.33152330;2022-11-20T11:13:20;6.80;59.80
9544;DHT22;30418;51.45933468;7.33152330;2022-11-20T11:15:49;6.80;59.90
9544;DHT22;30418;51.45933468;7.33152330;2022-11-20T11:18:28;6.80;59.90
9544;DHT22;30418;51.45933468;7.33152330;2022-11-20T11:21:00;6.80;59.80
9544;DHT22;30418;51.45933468;7.33152330;2022-11-20T11:23:32;6.80;59.90
9544;DHT22;30418;51.45933468;7.33152330;2022-11-20T11:26:04;6.90;59.90
9544;DHT22;30418;51.45933468;7.33152330;2022-11-20T11:28:34;6.90;59.90
9544;DHT22;30418;51.45933468;7.33152330;2022-11-20T11:31:02;6.90;59.90
9544;DHT22;30418;51.45933468;7.33152330;2022-11-20T11:33:32;6.90;59.90
9544;DHT22;30418;51.45933468;7.33152330;2022-11-20T11:36:03;7.00;60.00
9544;DHT22;30418;51.45933468;7.33152330;2022-11-20T11:38:43;7.00;60.00
9544;DHT22;30418;51.45933468;7.33152330;2022-11-20T11:41:16;7.00;60.00
9544;DHT22;30418;51.45933468;7.33152330;2022-11-20T11:43:52;7.00;60.80
9544;DHT22;30418;51.45933468;7.33152330;2022-11-20T11:46:36;7.10;60.00
9544;DHT22;30418;51.45933468;7.33152330;2022-11-20T11:49:16;7.10;60.00
9544;DHT22;30418;51.45933468;7.33152330;2022-11-20T11:51:56;7.10;60.00
9544;DHT22;30418;51.45933468;7.33152330;2022-11-20T11:54:32;7.10;59.90
9544;DHT22;30418;51.45933468;7.33152330;2022-11-20T11:57:10;7.20;60.00
9544;DHT22;30418;51.45933468;7.33152330;2022-11-20T11:59:47;7.20;60.00
9544;DHT22;30418;51.45933468;7.33152330;2022-11-20T12:02:32;7.20;60.00
9544;DHT22;30418;51.45933468;7.33152330;2022-11-20T12:05:15;7.20;60.00
9544;DHT22;30418;51.45933468;7.33152330;2022-11-20T12:07:47;7.30;60.00
9544;DHT22;30418;51.45933468;7.33152330;2022-11-20T12:10:21;7.30;60.00
9544;DHT22;30418;51.45933468;7.33152330;2022-11-20T12:12:55;7.30;59.90
9544;DHT22;30418;51.45933468;7.33152330;2022-11-20T12:15:31;7.30;59.90
9544;DHT22;30418;51.45933468;7.33152330;2022-11-20T12:18:01;7.40;59.90
9544;DHT22;30418;51.45933468;7.33152330;2022-11-20T12:20:35;7.40;59.90
9544;DHT22;30418;51.45933468;7.33152330;2022-11-20T12:23:17;7.40;59.80
9544;DHT22;30418;51.45933468;7.33152330;2022-11-20T12:25:54;7.50;59.80
9544;DHT22;30418;51.45933468;7.33152330;2022-11-20T12:28:44;7.40;59.60
9544;DHT22;30418;51.45933468;7.33152330;2022-11-20T12:31:35;7.50;59.60
9544;DHT22;30418;51.45933468;7.33152330;2022-11-20T12:34:20;7.50;59.70
9544;DHT22;30418;51.45933468;7.33152330;2022-11-20T12:36:59;7.50;59.60
9544;DHT22;30418;51.45933468;7.33152330;2022-11-20T12:39:41;7.50;59.60
9544;DHT22;30418;51.45933468;7.33152330;2022-11-20T12:49:12;7.50;59.40
9544;DHT22;30418;51.45933468;7.33152330;2022-11-20T12:52:13;7.50;59.40
9544;DHT22;30418;51.45933468;7.33152330;2022-11-20T12:57:48;7.40;59.40
9544;DHT22;30418;51.45933468;7.33152330;2022-11-20T13:00:20;7.40;60.00
9544;DHT22;30418;51.45933468;7.33152330;2022-11-20T13:03:05;7.40;59.40
9544;DHT22;30418;51.45933468;7.33152330;2022-11-20T13:05:54;7.40;59.40
9544;DHT22;30418;51.45933468;7.33152330;2022-11-20T13:08:28;7.40;59.50
9544;DHT22;30418;51.45933468;7.33152330;2022-11-20T13:11:03;7.40;59.50
9544;DHT22;30418;51.45933468;7.33152330;2022-11-20T13:13:46;7.40;59.60
9544;DHT22;30418;51.45933468;7.33152330;2022-11-20T13:16:26;7.40;59.60
9544;DHT22;30418;51.45933468;7.33152330;2022-11-20T13:19:03;7.40;59.50
9544;DHT22;30418;51.45933468;7.33152330;2022-11-20T13:21:37;7.40;59.60
9544;DHT22;30418;51.45933468;7.33152330;2022-11-20T13:24:21;7.40;59.60
9544;DHT22;30418;51.45933468;7.33152330;2022-11-20T13:27:17;7.40;59.50
9544;DHT22;30418;51.45933468;7.33152330;2022-11-20T13:30:00;7.40;59.60
9544;DHT22;30418;51.45933468;7.33152330;2022-11-20T13:32:30;7.40;59.60
9544;DHT22;30418;51.45933468;7.33152330;2022-11-20T13:35:00;7.40;59.60
9544;DHT22;30418;51.45933468;7.33152330;2022-11-20T13:37:32;7.40;59.60
9544;DHT22;30418;51.45933468;7.33152330;2022-11-20T13:40:21;7.40;59.60
9544;DHT22;30418;51.45933468;7.33152330;2022-11-20T13:43:04;7.40;59.50
9544;DHT22;30418;51.45933468;7.33152330;2022-11-20T13:45:36;7.40;59.60
9544;DHT22;30418;51.45933468;7.33152330;2022-11-20T13:48:19;7.40;59.60
9544;DHT22;30418;51.45933468;7.33152330;2022-11-20T13:50:56;7.40;59.50
9544;DHT22;30418;51.45933468;7.33152330;2022-11-20T13:53:48;7.40;59.50
9544;DHT22;30418;51.45933468;7.33152330;2022-11-20T13:56:34;7.40;59.50
9544;DHT22;30418;51.45933468;7.33152330;2022-11-20T13:59:13;7.40;59.50
9544;DHT22;30418;51.45933468;7.33152330;2022-11-20T14:01:53;7.40;60.10
9544;DHT22;30418;51.45933468;7.33152330;2022-11-20T14:04:27;7.40;59.50
9544;DHT22;30418;51.45933468;7.33152330;2022-11-20T14:06:58;7.40;59.40
9544;DHT22;30418;51.45933468;7.33152330;2022-11-20T14:09:28;7.40;59.40
9544;DHT22;30418;51.45933468;7.33152330;2022-11-20T14:11:59;7.30;59.40
9544;DHT22;30418;51.45933468;7.33152330;2022-11-20T14:14:30;7.40;59.50
9544;DHT22;30418;51.45933468;7.33152330;2022-11-20T14:17:07;7.40;59.50
9544;DHT22;30418;51.45933468;7.33152330;2022-11-20T14:19:37;7.40;59.60
9544;DHT22;30418;51.45933468;7.33152330;2022-11-20T14:22:18;7.40;59.60
9544;DHT22;30418;51.45933468;7.33152330;2022-11-20T14:25:00;7.40;59.70
9544;DHT22;30418;51.45933468;7.33152330;2022-11-20T14:27:33;7.40;59.70